Time;durP1;ratioP1;P1;durP2;ratioP2;P2;SDS_P1;SDS_P2;PMS_P1;PMS_P2;Temp;Humidity;BMP_temperature;BMP_pressure;BME280_temperature;BME280_humidity;BME280_pressure;Samples;Min_cycle;Max_cycle;Signal;HPM_P1;HPM_P2
2023/06/05 00:00:47;;;;;;;9.93;8.60;;;10.30;99.90;;;;;;5112889;27;20489;-89
2023/06/05 00:03:13;;;;;;;11.85;8.77;;;10.30;99.90;;;;;;5111716;27;20389;-88
2023/06/05 00:05:38;;;;;;;8.83;7.93;;;10.30;99.90;;;;;;5112559;27;20420;-90
2023/06/05 00:08:04;;;;;;;9.55;7.80;;;10.40;99.90;;;;;;5112253;27;20454;-88
2023/06/05 00:10:30;;;;;;;7.65;6.88;;;10.40;99.90;;;;;;5112187;27;20436;-89
2023/06/05 00:12:56;;;;;;;8.27;6.63;;;10.50;99.90;;;;;;5112179;27;20393;-89
2023/06/05 00:15:21;;;;;;;8.20;7.13;;;10.40;99.90;;;;;;5111395;27;20448;-89
2023/06/05 00:17:47;;;;;;;8.63;7.28;;;10.40;99.90;;;;;;5112310;27;20412;-89
2023/06/05 00:20:13;;;;;;;6.82;6.03;;;10.50;99.90;;;;;;5111582;27;20400;-89
2023/06/05 00:22:44;;;;;;;8.50;6.57;;;10.60;99.90;;;;;;5112138;27;20411;-89
2023/06/05 00:25:10;;;;;;;7.55;6.78;;;10.60;99.90;;;;;;5111612;27;20456;-89
2023/06/05 00:27:35;;;;;;;7.28;6.50;;;10.60;99.90;;;;;;5111995;27;20694;-89
2023/06/05 00:30:01;;;;;;;7.95;6.70;;;10.70;99.90;;;;;;5112316;27;20405;-90
2023/06/05 00:32:27;;;;;;;8.95;6.53;;;10.80;99.90;;;;;;5129039;27;20918;-89
2023/06/05 00:34:52;;;;;;;9.07;6.30;;;10.70;99.90;;;;;;5116010;27;20883;-90
2023/06/05 00:37:20;;;;;;;6.90;6.20;;;10.80;99.90;;;;;;5132537;27;21348;-89
2023/06/05 00:39:45;;;;;;;7.47;5.88;;;10.60;99.90;;;;;;5115385;27;20793;-89
2023/06/05 00:42:11;;;;;;;6.55;5.82;;;10.80;99.90;;;;;;5115436;27;20842;-89
2023/06/05 00:44:37;;;;;;;6.90;5.90;;;10.80;99.90;;;;;;5115494;27;20519;-89
2023/06/05 00:47:05;;;;;;;6.25;5.32;;;11.00;99.90;;;;;;5115420;27;20400;-89
2023/06/05 00:49:31;;;;;;;6.90;5.78;;;11.00;99.90;;;;;;5115713;27;20842;-89
2023/06/05 00:51:57;;;;;;;6.78;5.40;;;11.00;99.90;;;;;;5132262;27;20393;-89
2023/06/05 00:54:23;;;;;;;6.00;5.20;;;11.10;99.90;;;;;;5114715;27;20434;-90
2023/06/05 00:56:52;;;;;;;7.30;5.57;;;11.10;99.90;;;;;;5115727;27;20485;-89
2023/06/05 00:59:18;;;;;;;6.97;5.30;;;11.20;99.90;;;;;;5114801;27;20877;-88
2023/06/05 01:01:45;;;;;;;5.97;5.25;;;11.20;99.90;;;;;;5115127;27;20393;-89
2023/06/05 01:04:11;;;;;;;5.93;4.60;;;11.20;99.90;;;;;;5115660;27;20893;-88
2023/06/05 01:06:38;;;;;;;5.72;4.97;;;11.30;99.90;;;;;;5114915;27;20405;-89
2023/06/05 01:09:05;;;;;;;6.55;5.60;;;11.30;99.90;;;;;;5132662;27;20401;-88
2023/06/05 01:12:00;;;;;;;6.10;4.95;;;11.30;99.90;;;;;;5114325;27;20480;-89
2023/06/05 01:14:30;;;;;;;5.90;4.80;;;11.30;99.90;;;;;;5132192;27;20405;-89
2023/06/05 01:17:00;;;;;;;5.78;4.78;;;11.30;99.90;;;;;;5114764;27;20393;-89
2023/06/05 01:19:28;;;;;;;5.70;4.90;;;11.30;99.90;;;;;;5114803;27;20385;-89
2023/06/05 01:22:01;;;;;;;6.05;4.60;;;11.50;99.90;;;;;;5115024;27;20802;-89
2023/06/05 01:24:27;;;;;;;4.57;4.07;;;11.40;99.90;;;;;;5113976;27;20419;-89
2023/06/05 01:27:16;;;;;;;5.38;4.30;;;11.40;99.90;;;;;;5114412;27;20512;-90
2023/06/05 01:30:30;;;;;;;6.28;4.57;;;11.50;99.90;;;;;;5067838;27;20416;-89
2023/06/05 01:33:17;;;;;;;6.30;4.20;;;11.50;99.90;;;;;;5092938;27;20413;-90
2023/06/05 01:35:45;;;;;;;5.27;4.50;;;11.50;99.90;;;;;;5131465;27;20413;-89
2023/06/05 01:38:11;;;;;;;5.18;4.35;;;11.60;99.90;;;;;;5113884;27;20437;-89
2023/06/05 01:40:38;;;;;;;4.72;4.22;;;11.60;99.90;;;;;;5114672;27;20404;-89
2023/06/05 01:43:06;;;;;;;5.73;4.63;;;11.80;99.90;;;;;;5114548;27;20466;-89
2023/06/05 01:45:32;;;;;;;5.65;4.20;;;12.10;99.90;;;;;;5114148;27;20420;-89
2023/06/05 01:47:58;;;;;;;5.30;4.67;;;11.70;99.90;;;;;;5114479;27;20397;-89
2023/06/05 01:50:24;;;;;;;5.90;4.83;;;11.70;99.90;;;;;;5113765;27;20393;-88
2023/06/05 01:52:52;;;;;;;5.43;4.30;;;11.70;99.90;;;;;;5114176;27;20403;-88
2023/06/05 01:55:23;;;;;;;5.60;4.68;;;11.70;99.90;;;;;;5113360;27;21206;-89
2023/06/05 01:57:50;;;;;;;5.32;4.75;;;11.70;99.90;;;;;;5114156;27;20416;-89
2023/06/05 02:00:17;;;;;;;6.18;4.95;;;11.70;99.90;;;;;;5113775;27;20393;-89
2023/06/05 02:02:43;;;;;;;6.25;4.95;;;11.80;99.90;;;;;;5114081;27;20393;-89
2023/06/05 02:05:09;;;;;;;6.15;5.43;;;11.90;99.90;;;;;;5114217;27;20420;-88
2023/06/05 02:07:39;;;;;;;5.97;5.07;;;11.80;99.90;;;;;;5113164;27;20404;-90
2023/06/05 02:10:09;;;;;;;5.40;4.70;;;11.70;99.90;;;;;;5113944;27;20396;-90
2023/06/05 02:12:37;;;;;;;5.80;5.20;;;11.70;99.90;;;;;;5130495;27;20511;-89
2023/06/05 02:15:03;;;;;;;6.65;5.35;;;11.70;99.90;;;;;;5130881;27;20461;-89
2023/06/05 02:17:29;;;;;;;7.55;5.55;;;11.70;99.90;;;;;;5113472;27;20400;-89
2023/06/05 02:19:56;;;;;;;6.32;5.57;;;11.70;99.90;;;;;;5114118;27;20899;-89
2023/06/05 02:22:23;;;;;;;6.00;5.40;;;11.60;99.90;;;;;;5113571;27;20397;-89
2023/06/05 02:24:51;;;;;;;6.13;5.50;;;11.70;99.90;;;;;;5112708;27;20456;-89
2023/06/05 02:27:17;;;;;;;6.70;6.05;;;11.80;99.90;;;;;;5113512;27;20405;-89
2023/06/05 02:29:43;;;;;;;6.72;5.65;;;11.70;99.90;;;;;;5112997;27;20389;-90
2023/06/05 02:32:09;;;;;;;7.30;5.75;;;11.80;99.90;;;;;;5130595;27;20405;-88
2023/06/05 02:34:35;;;;;;;6.65;5.72;;;11.80;99.90;;;;;;5112712;27;20409;-89
2023/06/05 02:37:01;;;;;;;7.00;6.30;;;11.70;99.90;;;;;;5113364;27;20891;-89
2023/06/05 02:39:26;;;;;;;6.68;5.97;;;11.70;99.90;;;;;;5113614;27;20393;-88
2023/06/05 02:41:53;;;;;;;6.83;5.90;;;11.70;99.90;;;;;;5113420;27;20854;-87
2023/06/05 02:44:19;;;;;;;6.53;5.63;;;11.80;99.90;;;;;;5113273;27;20512;-90
2023/06/05 02:46:45;;;;;;;6.05;5.45;;;11.70;99.90;;;;;;5112489;27;20433;-89
2023/06/05 02:49:10;;;;;;;7.83;6.77;;;11.70;99.90;;;;;;5113661;27;20400;-89
2023/06/05 02:51:36;;;;;;;6.10;5.50;;;11.80;99.90;;;;;;5112360;27;20393;-89
2023/06/05 02:54:02;;;;;;;7.32;6.32;;;11.80;99.90;;;;;;5113123;27;21018;-90
2023/06/05 02:56:29;;;;;;;7.20;5.53;;;11.80;99.90;;;;;;5112165;27;20412;-88
2023/06/05 02:58:56;;;;;;;7.65;6.45;;;11.80;99.90;;;;;;5113248;27;20767;-88
2023/06/05 03:01:22;;;;;;;6.78;5.88;;;11.80;99.90;;;;;;5112836;27;20974;-89
2023/06/05 03:03:48;;;;;;;7.30;6.60;;;11.80;99.90;;;;;;5112287;27;20405;-89
2023/06/05 03:06:17;;;;;;;8.70;7.53;;;11.80;99.90;;;;;;5112363;27;21065;-89
2023/06/05 03:08:44;;;;;;;8.27;7.28;;;11.80;99.90;;;;;;5112381;27;20400;-89
2023/06/05 03:11:10;;;;;;;7.93;7.13;;;11.90;99.90;;;;;;5113063;27;20431;-89
2023/06/05 03:13:35;;;;;;;8.82;7.78;;;11.80;99.90;;;;;;5112268;27;20450;-88
2023/06/05 03:16:01;;;;;;;8.55;7.60;;;11.80;99.90;;;;;;5113107;27;20434;-89
2023/06/05 03:18:30;;;;;;;8.57;7.30;;;11.80;99.90;;;;;;5112283;27;20508;-89
2023/06/05 03:20:56;;;;;;;8.33;7.43;;;11.80;99.90;;;;;;5112513;27;20396;-89
2023/06/05 03:23:22;;;;;;;9.32;7.70;;;11.80;99.90;;;;;;5112862;27;20499;-88
2023/06/05 03:25:47;;;;;;;8.32;7.50;;;11.80;99.90;;;;;;5111641;27;20432;-89
2023/06/05 03:28:15;;;;;;;8.10;7.30;;;11.90;99.90;;;;;;5128821;27;20440;-89
2023/06/05 03:30:41;;;;;;;9.93;7.55;;;12.00;99.90;;;;;;5111545;27;20441;-89
2023/06/05 03:33:07;;;;;;;8.67;7.40;;;11.90;99.90;;;;;;5112448;27;20765;-88
2023/06/05 03:35:32;;;;;;;8.90;7.78;;;12.00;99.90;;;;;;5112361;27;20944;-89
2023/06/05 03:37:59;;;;;;;8.40;7.60;;;12.00;99.90;;;;;;5112434;27;20393;-89
2023/06/05 03:40:24;;;;;;;8.43;7.27;;;12.00;99.90;;;;;;5112289;27;20397;-89
2023/06/05 03:42:51;;;;;;;8.83;7.20;;;12.10;99.90;;;;;;5111549;27;20405;-89
2023/06/05 03:45:16;;;;;;;8.05;7.25;;;12.00;99.90;;;;;;5111927;27;20425;-89
2023/06/05 03:47:44;;;;;;;8.45;7.47;;;12.00;99.90;;;;;;5111456;27;20508;-90
2023/06/05 03:50:11;;;;;;;7.50;6.72;;;12.00;99.90;;;;;;5112243;27;20404;-88
2023/06/05 03:52:39;;;;;;;6.88;6.15;;;12.10;99.90;;;;;;5128726;27;20396;-88
2023/06/05 03:55:07;;;;;;;7.15;6.35;;;12.10;99.90;;;;;;5112592;27;20795;-89
2023/06/05 03:57:33;;;;;;;7.93;6.78;;;12.10;99.90;;;;;;5129681;27;20393;-90
2023/06/05 03:59:59;;;;;;;7.40;6.60;;;12.20;99.90;;;;;;5128688;27;20408;-89
2023/06/05 04:02:25;;;;;;;6.45;5.82;;;12.20;99.90;;;;;;5111773;27;20393;-89
2023/06/05 04:04:51;;;;;;;7.90;6.07;;;12.20;99.90;;;;;;5128541;27;20436;-89
2023/06/05 04:07:17;;;;;;;6.90;5.93;;;12.20;99.90;;;;;;5130797;27;20412;-89
2023/06/05 04:09:42;;;;;;;6.80;5.40;;;12.30;99.90;;;;;;5115637;27;20755;-89
2023/06/05 04:12:13;;;;;;;5.80;5.30;;;12.30;99.90;;;;;;5116039;27;20401;-89
2023/06/05 04:14:39;;;;;;;6.60;5.13;;;12.30;99.90;;;;;;5132979;27;20412;-88
2023/06/05 04:17:05;;;;;;;5.82;4.63;;;12.30;99.90;;;;;;5115665;27;20393;-88
2023/06/05 04:19:31;;;;;;;5.30;4.40;;;12.30;99.90;;;;;;5116029;27;20882;-89
2023/06/05 04:21:57;;;;;;;5.47;4.18;;;12.70;99.90;;;;;;5115555;27;20451;-88
2023/06/05 04:24:25;;;;;;;4.33;3.93;;;12.40;99.90;;;;;;5115625;27;20919;-89
2023/06/05 04:26:51;;;;;;;4.85;3.67;;;12.40;99.90;;;;;;5132299;27;20413;-89
2023/06/05 04:29:18;;;;;;;5.22;3.78;;;12.40;99.90;;;;;;5116074;27;20397;-89
2023/06/05 04:31:47;;;;;;;4.63;3.50;;;12.50;99.90;;;;;;5115336;27;20814;-88
2023/06/05 04:34:12;;;;;;;4.32;3.50;;;12.50;99.90;;;;;;5115720;27;20438;-88
2023/06/05 04:36:40;;;;;;;6.40;3.97;;;12.60;99.90;;;;;;5115646;27;20385;-88
2023/06/05 04:39:10;;;;;;;3.63;3.13;;;12.60;99.90;;;;;;5132059;27;20474;-90
2023/06/05 04:41:37;;;;;;;3.10;2.80;;;12.70;99.90;;;;;;5115644;27;20385;-89
2023/06/05 04:44:03;;;;;;;3.28;2.78;;;12.80;99.90;;;;;;5114680;27;20389;-89
2023/06/05 04:46:28;;;;;;;3.28;2.30;;;12.80;99.90;;;;;;5115331;27;20836;-88
2023/06/05 04:48:57;;;;;;;3.90;2.63;;;12.80;99.90;;;;;;5115191;27;20835;-89
2023/06/05 04:51:22;;;;;;;2.65;2.28;;;12.90;99.90;;;;;;5132234;27;20408;-88
2023/06/05 04:53:52;;;;;;;3.65;2.30;;;13.00;99.90;;;;;;5115384;27;20401;-88
2023/06/05 04:56:20;;;;;;;2.47;1.90;;;13.40;99.90;;;;;;5114632;27;20408;-89
2023/06/05 04:58:47;;;;;;;2.33;1.33;;;13.10;99.90;;;;;;5114981;27;20392;-88
2023/06/05 05:01:13;;;;;;;2.22;1.70;;;13.10;99.90;;;;;;5132383;27;20787;-89
2023/06/05 05:03:40;;;;;;;2.10;1.42;;;13.10;99.90;;;;;;5115433;27;20405;-89
2023/06/05 05:06:06;;;;;;;2.85;1.40;;;13.20;99.90;;;;;;5115009;27;20919;-89
2023/06/05 05:08:31;;;;;;;2.58;1.60;;;13.30;99.90;;;;;;5115178;27;20404;-89
2023/06/05 05:10:57;;;;;;;1.70;1.30;;;13.60;99.90;;;;;;5115306;27;20947;-88
2023/06/05 05:13:23;;;;;;;3.20;1.70;;;13.40;99.90;;;;;;5114628;27;20393;-89
2023/06/05 05:15:52;;;;;;;2.67;1.40;;;13.40;99.90;;;;;;5114724;27;20915;-89
2023/06/05 05:18:18;;;;;;;2.58;1.80;;;13.50;99.90;;;;;;5130916;27;20412;-89
2023/06/05 05:20:45;;;;;;;2.08;1.60;;;13.50;99.90;;;;;;5115043;27;20922;-89
2023/06/05 05:23:10;;;;;;;2.83;1.57;;;13.60;99.90;;;;;;5131366;27;20472;-89
2023/06/05 05:25:38;;;;;;;2.83;1.60;;;13.70;99.90;;;;;;5114479;27;20496;-89
2023/06/05 05:28:04;;;;;;;2.70;1.33;;;13.70;99.90;;;;;;5114224;27;20393;-89
2023/06/05 05:30:30;;;;;;;3.28;1.40;;;13.80;99.90;;;;;;5114617;27;20449;-89
2023/06/05 05:32:56;;;;;;;3.75;1.40;;;13.80;99.90;;;;;;5115004;27;20397;-88
2023/06/05 05:35:22;;;;;;;2.20;1.05;;;13.80;99.90;;;;;;5130950;27;20447;-88
2023/06/05 05:37:48;;;;;;;2.07;1.17;;;13.90;99.90;;;;;;5114612;27;20674;-89
2023/06/05 05:40:13;;;;;;;2.17;0.98;;;14.00;99.90;;;;;;5131073;27;20461;-90
2023/06/05 05:42:39;;;;;;;2.47;1.30;;;14.00;99.90;;;;;;5114312;27;20920;-89
2023/06/05 05:45:06;;;;;;;3.73;1.37;;;14.10;99.90;;;;;;5114125;27;20936;-89
2023/06/05 05:47:31;;;;;;;2.70;1.40;;;14.20;99.90;;;;;;5114322;27;20393;-89
2023/06/05 05:49:57;;;;;;;2.20;1.10;;;14.20;99.90;;;;;;5114500;27;20764;-89
2023/06/05 05:52:22;;;;;;;2.10;1.23;;;14.30;99.90;;;;;;5113540;27;20393;-89
2023/06/05 05:54:48;;;;;;;2.22;1.30;;;14.40;99.90;;;;;;5113801;27;20894;-88
2023/06/05 05:57:14;;;;;;;2.47;1.23;;;14.40;99.90;;;;;;5113399;27;20444;-90
2023/06/05 05:59:42;;;;;;;2.67;1.50;;;14.50;99.90;;;;;;5130973;27;20437;-89
2023/06/05 06:02:09;;;;;;;2.00;1.20;;;14.60;99.90;;;;;;5113150;27;20400;-91
2023/06/05 06:04:35;;;;;;;1.58;1.00;;;14.70;99.90;;;;;;5114185;27;20406;-89
2023/06/05 06:07:02;;;;;;;2.10;1.20;;;14.70;99.90;;;;;;5113853;27;20421;-89
2023/06/05 06:09:29;;;;;;;1.73;1.50;;;14.70;99.90;;;;;;5131204;27;20405;-88
2023/06/05 06:11:55;;;;;;;2.25;1.02;;;14.90;99.90;;;;;;5114137;27;20421;-89
2023/06/05 06:14:24;;;;;;;2.55;1.50;;;15.00;99.90;;;;;;5113509;27;20878;-90
2023/06/05 06:16:50;;;;;;;2.13;1.23;;;14.90;99.90;;;;;;5131078;27;20538;-88
2023/06/05 06:19:16;;;;;;;2.30;1.13;;;15.00;99.90;;;;;;5113096;27;20395;-89
2023/06/05 06:21:42;;;;;;;2.47;1.42;;;15.10;99.90;;;;;;5113491;27;20405;-89
2023/06/05 06:24:09;;;;;;;2.55;1.38;;;15.20;99.90;;;;;;5130164;27;20405;-89
2023/06/05 06:26:38;;;;;;;2.00;1.40;;;15.40;99.90;;;;;;5113482;27;20486;-89
2023/06/05 06:29:04;;;;;;;1.20;0.82;;;15.40;99.90;;;;;;5130593;27;20400;-88
2023/06/05 06:31:30;;;;;;;2.07;1.20;;;15.40;99.90;;;;;;5111734;27;20401;-89
2023/06/05 06:33:55;;;;;;;3.67;1.45;;;15.60;99.90;;;;;;5113006;27;20831;-88
2023/06/05 06:36:22;;;;;;;3.20;1.37;;;15.60;99.90;;;;;;5112863;27;20436;-89
2023/06/05 06:38:47;;;;;;;2.92;1.40;;;15.60;99.90;;;;;;5113629;27;20401;-90
2023/06/05 06:41:13;;;;;;;2.20;1.50;;;15.60;99.90;;;;;;5112682;27;20389;-90
2023/06/05 06:43:39;;;;;;;2.88;1.35;;;15.70;99.90;;;;;;5113325;27;20477;-89
2023/06/05 06:46:05;;;;;;;2.70;1.33;;;15.80;99.90;;;;;;5113033;27;20442;-89
2023/06/05 06:48:32;;;;;;;2.35;1.45;;;15.80;99.90;;;;;;5112651;27;20468;-90
2023/06/05 06:50:58;;;;;;;3.15;1.45;;;15.90;99.90;;;;;;5113001;27;20500;-89
2023/06/05 06:53:23;;;;;;;4.30;1.75;;;15.90;99.90;;;;;;5112502;27;20401;-90
2023/06/05 06:55:49;;;;;;;3.43;2.10;;;16.00;99.90;;;;;;5113113;27;20392;-89
2023/06/05 06:58:14;;;;;;;3.03;1.98;;;16.00;99.90;;;;;;5112645;27;20389;-90
2023/06/05 07:00:40;;;;;;;2.30;1.60;;;16.10;99.90;;;;;;5112828;27;20499;-90
2023/06/05 07:03:06;;;;;;;2.38;1.45;;;16.10;99.90;;;;;;5112928;27;20409;-88
2023/06/05 07:05:31;;;;;;;2.60;1.40;;;16.40;99.90;;;;;;5112876;27;20424;-89
2023/06/05 07:08:00;;;;;;;3.20;1.50;;;16.30;99.90;;;;;;5113044;27;20462;-90
2023/06/05 07:10:27;;;;;;;3.35;1.80;;;16.40;99.90;;;;;;5112595;27;20416;-90
2023/06/05 07:12:53;;;;;;;2.38;1.40;;;16.60;99.90;;;;;;5112723;27;20389;-88
2023/06/05 07:15:19;;;;;;;4.10;1.58;;;16.90;99.90;;;;;;5129074;27;20485;-89
2023/06/05 07:17:45;;;;;;;2.47;1.43;;;16.60;99.90;;;;;;5129727;27;20412;-90
2023/06/05 07:20:10;;;;;;;3.13;1.42;;;16.40;99.90;;;;;;5112575;27;20849;-89
2023/06/05 07:22:36;;;;;;;4.23;1.73;;;16.80;99.90;;;;;;5112875;27;20884;-90
2023/06/05 07:25:02;;;;;;;3.65;1.77;;;16.70;99.90;;;;;;5112046;27;20495;-88
2023/06/05 07:27:28;;;;;;;3.08;2.03;;;16.80;99.90;;;;;;5112391;27;20415;-89
2023/06/05 07:29:54;;;;;;;2.55;1.73;;;16.90;99.90;;;;;;5112555;27;20400;-89
2023/06/05 07:32:20;;;;;;;3.20;1.90;;;17.10;99.90;;;;;;5111726;27;20404;-90
2023/06/05 07:34:46;;;;;;;3.15;2.08;;;17.20;99.60;;;;;;5112519;27;20500;-89
2023/06/05 07:37:12;;;;;;;3.33;1.87;;;17.30;96.10;;;;;;5112053;27;20422;-89
2023/06/05 07:39:37;;;;;;;2.45;1.98;;;17.30;98.60;;;;;;5129778;27;20480;-91
2023/06/05 07:42:03;;;;;;;3.20;2.00;;;17.40;99.90;;;;;;5113043;27;20388;-88
2023/06/05 07:44:29;;;;;;;2.87;1.97;;;17.60;99.90;;;;;;5116401;27;20389;-88
2023/06/05 07:46:55;;;;;;;3.10;1.90;;;17.90;98.30;;;;;;5116747;27;20416;-90
2023/06/05 07:49:23;;;;;;;3.08;2.03;;;18.20;98.50;;;;;;5115885;27;20983;-90
2023/06/05 07:51:50;;;;;;;3.78;2.00;;;18.30;94.80;;;;;;5116443;27;20403;-90
2023/06/05 07:54:16;;;;;;;2.80;1.63;;;18.30;94.00;;;;;;5132681;27;20399;-90
2023/06/05 07:56:42;;;;;;;3.80;2.10;;;18.20;95.60;;;;;;5116426;27;20743;-90
2023/06/05 07:59:08;;;;;;;4.32;2.10;;;18.10;95.30;;;;;;5115826;27;20483;-89
2023/06/05 08:01:36;;;;;;;3.93;1.90;;;18.10;92.30;;;;;;5116958;27;21016;-90
2023/06/05 08:04:10;;;;;;;3.08;1.83;;;17.90;95.30;;;;;;5133704;27;20743;-90
2023/06/05 08:06:37;;;;;;;3.78;1.70;;;18.20;97.30;;;;;;5115875;27;20439;-91
2023/06/05 08:09:04;;;;;;;3.53;1.88;;;18.20;93.50;;;;;;5116206;27;20397;-90
2023/06/05 08:11:29;;;;;;;3.83;2.10;;;18.40;95.90;;;;;;5132387;27;20393;-88
2023/06/05 08:13:55;;;;;;;2.42;1.50;;;18.40;95.10;;;;;;5115824;27;20397;-91
2023/06/05 08:16:21;;;;;;;3.07;1.60;;;18.60;93.20;;;;;;5133455;27;20835;-89
2023/06/05 08:18:47;;;;;;;3.05;1.63;;;18.70;92.80;;;;;;5116146;27;20891;-89
2023/06/05 08:21:13;;;;;;;2.73;1.63;;;18.60;92.10;;;;;;5115919;27;20405;-89
2023/06/05 08:23:39;;;;;;;3.10;1.67;;;18.30;93.40;;;;;;5115547;27;20392;-89
2023/06/05 08:26:10;;;;;;;3.20;1.80;;;18.50;96.10;;;;;;5116066;27;20516;-90
2023/06/05 08:28:40;;;;;;;2.63;2.20;;;18.30;95.10;;;;;;5115044;27;20424;-90
2023/06/05 08:31:10;;;;;;;2.85;1.50;;;18.40;99.50;;;;;;5115561;27;20440;-89
2023/06/05 08:33:36;;;;;;;2.95;1.70;;;18.90;94.50;;;;;;5115128;27;20585;-89
2023/06/05 08:36:03;;;;;;;2.75;1.63;;;18.80;92.40;;;;;;5132827;27;20449;-89
2023/06/05 08:38:30;;;;;;;2.40;1.90;;;18.80;91.20;;;;;;5132480;27;20595;-89
2023/06/05 08:41:07;;;;;;;3.33;1.75;;;18.80;91.20;;;;;;5115543;27;20389;-91
2023/06/05 08:43:39;;;;;;;2.15;1.58;;;18.60;95.10;;;;;;5115643;27;20473;-89
2023/06/05 08:46:07;;;;;;;2.40;1.50;;;18.70;96.20;;;;;;5114702;27;20413;-89
2023/06/05 08:48:40;;;;;;;2.43;1.20;;;18.60;93.00;;;;;;5115798;27;20396;-90
2023/06/05 08:51:09;;;;;;;3.30;1.85;;;18.70;90.70;;;;;;5132076;27;20408;-90
2023/06/05 08:53:35;;;;;;;3.40;2.08;;;18.60;92.70;;;;;;5114346;27;20401;-90
2023/06/05 08:56:01;;;;;;;2.95;1.70;;;18.50;96.50;;;;;;5115545;27;20739;-89
2023/06/05 08:58:28;;;;;;;3.05;1.98;;;18.50;98.20;;;;;;5115245;27;20398;-89
2023/06/05 09:00:54;;;;;;;2.92;2.00;;;18.50;98.80;;;;;;5115492;27;20381;-88
2023/06/05 09:03:20;;;;;;;3.13;1.90;;;18.50;98.30;;;;;;5114301;27;20396;-90
2023/06/05 09:05:48;;;;;;;3.53;2.20;;;18.20;96.50;;;;;;5115047;27;21287;-90
2023/06/05 09:08:16;;;;;;;3.00;1.90;;;18.10;96.00;;;;;;5114678;27;20389;-88
2023/06/05 09:10:42;;;;;;;2.72;2.10;;;18.10;98.80;;;;;;5115884;27;20397;-90
2023/06/05 09:13:09;;;;;;;2.87;2.30;;;18.20;99.90;;;;;;5132081;27;20419;-90
2023/06/05 09:15:35;;;;;;;3.03;2.57;;;18.20;97.40;;;;;;5114710;27;20742;-89
2023/06/05 09:18:07;;;;;;;3.28;2.40;;;18.10;98.20;;;;;;5115206;27;20730;-88
2023/06/05 09:20:34;;;;;;;3.75;2.00;;;18.20;99.30;;;;;;5115012;27;20404;-90
2023/06/05 09:23:02;;;;;;;2.70;1.87;;;18.50;99.90;;;;;;5114669;27;20397;-90
2023/06/05 09:25:45;;;;;;;3.15;1.80;;;19.10;97.10;;;;;;5113771;27;20433;-89
2023/06/05 09:28:11;;;;;;;2.67;1.70;;;19.70;97.00;;;;;;5131836;27;20436;-89
2023/06/05 09:30:57;;;;;;;2.83;2.05;;;20.30;93.20;;;;;;5114527;27;20441;-90
2023/06/05 09:33:23;;;;;;;2.70;2.08;;;20.40;97.20;;;;;;5114106;27;20497;-89
2023/06/05 09:36:10;;;;;;;2.22;1.60;;;20.60;95.90;;;;;;5113813;27;20400;-91
2023/06/05 09:38:38;;;;;;;2.97;1.98;;;20.70;81.40;;;;;;5114084;27;20404;-90
2023/06/05 09:41:11;;;;;;;3.88;2.20;;;20.70;80.80;;;;;;5113857;27;20401;-88
2023/06/05 09:43:38;;;;;;;2.85;2.38;;;20.70;77.20;;;;;;5115121;27;20401;-89
2023/06/05 09:46:14;;;;;;;3.77;2.47;;;20.60;78.20;;;;;;5130822;27;20417;-91
2023/06/05 09:48:43;;;;;;;2.63;2.28;;;20.10;93.50;;;;;;5113800;27;20445;-90
2023/06/05 09:51:17;;;;;;;3.40;2.17;;;20.30;86.50;;;;;;5113320;27;20393;-90
2023/06/05 09:53:45;;;;;;;3.50;2.23;;;20.20;78.50;;;;;;5114932;27;20785;-90
2023/06/05 09:56:19;;;;;;;2.53;2.00;;;19.90;86.80;;;;;;5113895;27;20393;-88
2023/06/05 09:58:48;;;;;;;3.03;1.92;;;19.90;91.70;;;;;;5130509;27;20405;-90
2023/06/05 10:01:22;;;;;;;2.10;1.67;;;20.30;93.50;;;;;;5113827;27;20392;-91
2023/06/05 10:03:54;;;;;;;3.00;1.60;;;20.70;78.50;;;;;;5113753;27;20451;-90
2023/06/05 10:06:23;;;;;;;3.47;2.10;;;20.50;76.40;;;;;;5113387;27;20550;-91
2023/06/05 10:08:52;;;;;;;2.67;2.20;;;21.10;90.70;;;;;;5112698;27;20392;-91
2023/06/05 10:11:20;;;;;;;2.50;1.90;;;21.10;77.00;;;;;;5113295;27;20393;-88
2023/06/05 10:13:48;;;;;;;2.90;2.00;;;21.10;75.60;;;;;;5114371;27;20744;-88
2023/06/05 10:16:14;;;;;;;2.70;2.30;;;21.40;81.60;;;;;;5113487;27;20918;-90
2023/06/05 10:18:40;;;;;;;3.28;1.98;;;21.70;73.50;;;;;;5112792;27;20950;-90
2023/06/05 10:21:06;;;;;;;2.10;1.60;;;22.10;68.50;;;;;;5112632;27;20409;-91
2023/06/05 10:23:33;;;;;;;2.88;2.20;;;22.30;65.70;;;;;;5130739;27;20393;-91
2023/06/05 10:26:05;;;;;;;2.70;1.85;;;22.30;58.40;;;;;;5113500;27;20424;-90
2023/06/05 10:29:13;;;;;;;2.28;1.70;;;22.70;71.90;;;;;;5130616;27;20411;-90
2023/06/05 10:31:47;;;;;;;2.50;1.43;;;23.10;65.20;;;;;;5062276;27;20822;-91
2023/06/05 10:34:19;;;;;;;2.50;2.10;;;23.40;55.50;;;;;;5112918;27;20412;-89
2023/06/05 10:36:57;;;;;;;2.47;1.65;;;23.40;51.70;;;;;;5112929;27;20411;-90
2023/06/05 10:39:25;;;;;;;2.20;1.70;;;23.70;54.50;;;;;;5113157;27;20407;-89
2023/06/05 10:41:51;;;;;;;2.20;1.52;;;23.90;54.00;;;;;;5130199;27;20405;-89
2023/06/05 10:44:17;;;;;;;2.80;1.60;;;24.00;58.50;;;;;;5113151;27;21200;-90
2023/06/05 10:46:43;;;;;;;2.30;1.70;;;24.30;50.90;;;;;;5129844;27;20459;-90
2023/06/05 10:49:17;;;;;;;2.10;1.60;;;24.60;53.90;;;;;;5112717;27;20409;-90
2023/06/05 10:51:43;;;;;;;2.55;1.60;;;24.80;51.40;;;;;;5112813;27;20442;-91
2023/06/05 10:54:11;;;;;;;2.53;1.40;;;25.00;48.90;;;;;;5112893;27;20492;-91
2023/06/05 10:56:52;;;;;;;1.67;1.38;;;25.00;46.30;;;;;;5112702;27;20389;-90
2023/06/05 10:59:20;;;;;;;2.20;1.50;;;25.10;49.90;;;;;;5130176;27;20999;-91
2023/06/05 11:02:06;;;;;;;2.00;1.40;;;25.20;47.10;;;;;;5112426;27;20436;-89
2023/06/05 11:04:47;;;;;;;2.20;1.58;;;25.00;46.30;;;;;;5112358;27;20396;-91
2023/06/05 11:07:23;;;;;;;2.33;1.17;;;24.30;45.90;;;;;;5112978;27;20421;-91
2023/06/05 11:10:06;;;;;;;2.33;1.60;;;23.70;48.80;;;;;;5130069;27;20399;-90
2023/06/05 11:12:35;;;;;;;2.08;1.25;;;23.80;52.10;;;;;;5112203;27;20397;-89
2023/06/05 11:15:04;;;;;;;1.93;1.70;;;23.90;50.40;;;;;;5112217;27;20919;-91
2023/06/05 11:17:30;;;;;;;1.47;1.17;;;23.90;48.80;;;;;;5111439;27;20751;-92
2023/06/05 11:19:57;;;;;;;2.10;0.90;;;24.30;53.30;;;;;;5112261;27;20443;-90
2023/06/05 11:22:22;;;;;;;1.50;1.00;;;25.00;52.70;;;;;;5112249;27;20393;-91
2023/06/05 11:25:13;;;;;;;1.70;1.00;;;25.10;50.80;;;;;;5112502;27;20527;-90
2023/06/05 11:27:42;;;;;;;1.23;0.93;;;25.40;48.80;;;;;;5129473;27;20412;-89
2023/06/05 11:30:12;;;;;;;1.52;0.85;;;25.70;47.40;;;;;;5111917;27;20444;-89
2023/06/05 11:32:37;;;;;;;1.30;0.80;;;25.80;50.90;;;;;;5112289;27;20761;-91
2023/06/05 11:35:05;;;;;;;1.58;0.70;;;26.40;47.80;;;;;;5128834;27;20397;-91
2023/06/05 11:37:32;;;;;;;1.80;0.90;;;26.40;47.10;;;;;;5129381;27;20393;-90
2023/06/05 11:39:58;;;;;;;1.60;0.93;;;26.20;43.60;;;;;;5111959;27;20475;-90
2023/06/05 11:42:24;;;;;;;2.30;0.88;;;26.00;43.30;;;;;;5111827;27;20397;-89
2023/06/05 11:44:50;;;;;;;1.50;0.70;;;26.40;47.10;;;;;;5112138;27;20397;-92
2023/06/05 11:47:23;;;;;;;1.80;0.77;;;26.70;46.10;;;;;;5112035;27;20767;-91
2023/06/05 11:49:48;;;;;;;1.23;0.82;;;26.50;44.70;;;;;;5112146;27;20464;-90
2023/06/05 11:52:20;;;;;;;1.57;0.90;;;26.40;42.40;;;;;;5128196;27;20393;-90
2023/06/05 11:54:53;;;;;;;2.40;1.02;;;26.10;43.50;;;;;;5129172;27;20894;-89
2023/06/05 11:57:26;;;;;;;2.00;1.20;;;26.10;44.60;;;;;;5128886;27;20415;-90
2023/06/05 11:59:52;;;;;;;1.95;0.98;;;25.60;44.20;;;;;;5112285;27;20685;-91
2023/06/05 12:02:24;;;;;;;1.20;0.80;;;25.90;44.90;;;;;;5112896;27;20432;-91
2023/06/05 12:04:50;;;;;;;1.63;1.10;;;25.80;43.40;;;;;;5111535;27;20385;-92
2023/06/05 12:07:28;;;;;;;1.50;0.87;;;25.90;46.90;;;;;;5112111;27;20729;-90
2023/06/05 12:09:54;;;;;;;1.95;0.80;;;26.10;44.10;;;;;;5111724;27;20444;-92
2023/06/05 12:12:20;;;;;;;1.92;0.80;;;26.60;47.30;;;;;;5129681;27;20439;-90
2023/06/05 12:14:46;;;;;;;1.97;0.97;;;27.40;44.10;;;;;;5112092;27;20816;-90
2023/06/05 12:17:12;;;;;;;1.20;0.95;;;27.90;41.70;;;;;;5112040;27;20929;-90
2023/06/05 12:19:38;;;;;;;1.85;1.00;;;28.10;41.70;;;;;;5112274;27;20489;-91
2023/06/05 12:22:05;;;;;;;1.50;1.08;;;28.20;42.60;;;;;;5111443;27;20393;-92
2023/06/05 12:24:32;;;;;;;1.67;1.10;;;27.90;41.40;;;;;;5112000;27;20394;-92
2023/06/05 12:27:05;;;;;;;2.03;1.02;;;27.90;41.50;;;;;;5111595;27;20962;-92
2023/06/05 12:29:32;;;;;;;2.10;1.05;;;28.30;42.00;;;;;;5115529;27;20419;-89
2023/06/05 12:32:00;;;;;;;1.52;1.40;;;28.50;40.70;;;;;;5132546;27;20396;-90
2023/06/05 12:34:47;;;;;;;2.28;1.67;;;28.30;38.80;;;;;;5132666;27;20929;-91
2023/06/05 12:37:31;;;;;;;2.22;1.20;;;27.80;39.60;;;;;;5115382;27;20445;-90
2023/06/05 12:39:58;;;;;;;1.40;0.98;;;28.10;41.40;;;;;;5114851;27;20409;-91
2023/06/05 12:42:24;;;;;;;2.53;1.10;;;28.40;40.20;;;;;;5115530;27;20430;-89
2023/06/05 12:44:50;;;;;;;1.92;1.35;;;29.00;39.80;;;;;;5132355;27;20404;-90
2023/06/05 12:47:16;;;;;;;1.92;1.40;;;29.00;38.70;;;;;;5115093;27;20421;-90
2023/06/05 12:49:42;;;;;;;1.48;1.20;;;29.10;37.00;;;;;;5115469;27;20393;-91
2023/06/05 12:52:10;;;;;;;2.42;1.55;;;28.90;38.90;;;;;;5132555;27;20493;-90